createdAt,value
2023-03-27T00:25:29.865Z,9
2023-03-27T00:54:46.299Z,12
2023-03-27T01:24:10.411Z,13
2023-03-27T01:53:26.721Z,21
2023-03-27T02:22:38.956Z,15
2023-03-27T02:51:43.518Z,21
2023-03-27T03:20:49.241Z,21
2023-03-27T03:50:07.673Z,29
2023-03-27T04:19:25.569Z,32
2023-03-27T04:48:39.590Z,28
2023-03-27T05:17:51.149Z,28
2023-03-27T05:46:58.836Z,21
2023-03-27T06:16:05.888Z,6
2023-03-27T06:45:08.212Z,8
2023-03-27T07:14:19.891Z,7
2023-03-27T07:43:36.938Z,7
2023-03-27T08:12:55.292Z,7
2023-03-27T08:42:00.193Z,7
2023-03-27T09:11:21.851Z,9
2023-03-27T09:40:32.158Z,6
2023-03-27T10:09:54.841Z,7
2023-03-27T10:39:22.778Z,7
2023-03-27T11:08:44.875Z,4
2023-03-27T11:38:14.496Z,6
2023-03-27T12:07:37.058Z,6
2023-03-27T12:36:18.743Z,5
2023-03-27T13:05:26.651Z,6
2023-03-27T13:34:03.530Z,6
2023-03-27T14:03:21.840Z,3
2023-03-27T14:32:22.963Z,6
2023-03-27T15:01:39.270Z,6
2023-03-27T15:30:45.985Z,6
2023-03-27T15:59:53.674Z,5
2023-03-27T16:28:55.022Z,4
2023-03-27T16:58:14.338Z,5
2023-03-27T17:27:31.530Z,5
2023-03-27T17:56:40.527Z,5
2023-03-27T18:25:49.421Z,8
2023-03-27T18:55:08.232Z,9
2023-03-27T19:24:28.805Z,7
2023-03-27T19:53:48.400Z,15
2023-03-27T20:22:57.821Z,23
2023-03-27T20:51:45.632Z,23
2023-03-27T21:21:02.332Z,14
2023-03-27T21:50:15.891Z,15
2023-03-27T22:19:26.699Z,14
2023-03-27T22:48:35.442Z,14
2023-03-27T23:17:49.761Z,21
2023-03-27T23:46:55.439Z,15
